Melvin, Iowa
Current Conditions -  °F | °C
As of 3:15 PM on Wednesday 26 Nov 2014 (Local Time) from KSHL Reporting Station
Overcast Overcast  
Wind Chill:   Ceiling: 1400
Heat Index: 19°   Visibility: 10mi
Dew Point: 16°   Wind: 16mph
Humidity: 86%   Direction: 350°N
Pressure: 30.24"   Gusts: 25mph
Location:  43.29°N, 95.61°W
Report Text: KSHL 262115Z AUTO 35014G22KT 10SM BKN014 OVC021 M07/M09 A3024 RMK AO2
Loading
Personal Weather Stations






























Interactive Weather Map New forecast layout! Learn more

10-Day Weather Forecast

Advertisements
Track Severe Weather on mobile